Time;durP1;ratioP1;P1;durP2;ratioP2;P2;SDS_P1;SDS_P2;PMS_P1;PMS_P2;Temp;Humidity;BMP_temperature;BMP_pressure;BME280_temperature;BME280_humidity;BME280_pressure;Samples;Min_cycle;Max_cycle;Signal;HPM_P1;HPM_P2
2021/12/03 00:01:29;;;;;;;3.47;3.27;;;5.30;90.00;;;;;;950497;150;27335;-73
2021/12/03 00:03:55;;;;;;;3.50;3.20;;;5.20;89.90;;;;;;950366;150;27350;-73
2021/12/03 00:06:22;;;;;;;3.80;3.50;;;5.10;89.90;;;;;;939490;150;27396;-73
2021/12/03 00:08:49;;;;;;;3.53;3.23;;;5.00;90.00;;;;;;934484;153;27398;-73
2021/12/03 00:11:15;;;;;;;3.60;3.30;;;4.90;90.00;;;;;;939781;151;27732;-73
2021/12/03 00:13:53;;;;;;;4.07;3.77;;;4.90;89.60;;;;;;942334;150;27279;-74
2021/12/03 00:16:19;;;;;;;4.77;3.83;;;4.80;90.20;;;;;;950555;150;27419;-73
2021/12/03 00:18:56;;;;;;;3.70;3.40;;;4.70;90.30;;;;;;950680;150;27335;-73
2021/12/03 00:21:24;;;;;;;3.50;3.20;;;4.60;90.30;;;;;;940439;151;27301;-73
2021/12/03 00:23:49;;;;;;;3.70;3.40;;;4.50;90.30;;;;;;933421;153;27289;-73
2021/12/03 00:26:16;;;;;;;3.57;3.27;;;4.50;90.40;;;;;;931299;154;27336;-73
2021/12/03 00:28:42;;;;;;;3.63;3.33;;;4.40;90.40;;;;;;948849;151;27280;-73
2021/12/03 00:31:09;;;;;;;3.97;3.43;;;4.30;90.40;;;;;;948256;150;27463;-73
2021/12/03 00:33:36;;;;;;;3.83;3.53;;;4.20;90.40;;;;;;934880;151;27384;-73
2021/12/03 00:36:05;;;;;;;4.40;4.00;;;4.20;90.40;;;;;;950468;150;27361;-73
2021/12/03 00:38:30;;;;;;;4.10;3.80;;;4.10;90.50;;;;;;949822;150;27384;-73
2021/12/03 00:40:55;;;;;;;3.73;3.43;;;4.00;90.50;;;;;;934315;153;27359;-73
2021/12/03 00:43:22;;;;;;;4.87;4.07;;;3.90;90.50;;;;;;945790;151;27283;-73
2021/12/03 00:45:50;;;;;;;3.80;3.50;;;3.80;90.60;;;;;;937687;150;27311;-73
2021/12/03 00:48:15;;;;;;;4.03;3.73;;;3.80;90.70;;;;;;934163;153;27414;-73
2021/12/03 00:50:41;;;;;;;3.90;3.50;;;3.70;90.80;;;;;;934402;153;27405;-73
2021/12/03 00:53:08;;;;;;;4.30;3.90;;;3.60;90.90;;;;;;932127;153;27316;-73
2021/12/03 00:55:35;;;;;;;4.20;3.80;;;3.60;91.00;;;;;;937525;151;27439;-73
2021/12/03 00:58:01;;;;;;;4.07;3.70;;;3.50;90.90;;;;;;935048;151;27365;-73
2021/12/03 01:00:28;;;;;;;4.73;4.23;;;3.50;91.00;;;;;;934422;151;27439;-75
2021/12/03 01:02:54;;;;;;;4.17;3.83;;;3.40;91.10;;;;;;933551;150;27327;-75
2021/12/03 01:05:21;;;;;;;4.23;3.90;;;3.30;91.20;;;;;;931210;154;27311;-75
2021/12/03 01:07:47;;;;;;;4.57;4.10;;;3.30;91.30;;;;;;940745;151;27297;-75
2021/12/03 01:10:14;;;;;;;4.47;4.07;;;3.20;91.30;;;;;;950534;150;27287;-74
2021/12/03 01:12:41;;;;;;;4.27;3.90;;;3.20;91.30;;;;;;934655;150;27310;-75
2021/12/03 01:15:07;;;;;;;5.00;4.50;;;3.20;91.30;;;;;;934328;153;27316;-74
2021/12/03 01:17:34;;;;;;;3.83;3.53;;;3.10;91.40;;;;;;941813;151;27367;-74
2021/12/03 01:20:04;;;;;;;4.47;4.07;;;3.00;91.40;;;;;;939610;151;27393;-74
2021/12/03 01:22:27;;;;;;;4.43;4.03;;;3.00;91.50;;;;;;946776;150;27302;-74
2021/12/03 01:24:54;;;;;;;4.43;4.03;;;2.90;91.50;;;;;;934546;151;27263;-74
2021/12/03 01:27:20;;;;;;;4.43;4.03;;;2.90;91.60;;;;;;934442;153;27647;-74
2021/12/03 01:29:47;;;;;;;5.33;4.27;;;2.80;91.50;;;;;;936022;151;27318;-74
2021/12/03 01:32:13;;;;;;;4.70;4.20;;;2.70;91.50;;;;;;950642;150;27370;-74
2021/12/03 01:34:40;;;;;;;4.90;4.13;;;2.70;91.60;;;;;;950521;150;27256;-74
2021/12/03 01:37:06;;;;;;;4.63;4.23;;;2.70;91.70;;;;;;950185;150;27276;-74
2021/12/03 01:39:33;;;;;;;4.10;3.70;;;2.60;91.70;;;;;;950069;148;27296;-74
2021/12/03 01:42:00;;;;;;;3.93;3.53;;;2.50;91.70;;;;;;945978;148;27292;-74
2021/12/03 01:44:26;;;;;;;4.97;4.57;;;2.50;91.80;;;;;;939137;151;27285;-74
2021/12/03 01:46:53;;;;;;;5.03;4.33;;;2.40;91.80;;;;;;939277;151;27404;-75
2021/12/03 01:49:19;;;;;;;5.10;4.53;;;2.40;91.90;;;;;;939252;151;27304;-74
2021/12/03 01:51:46;;;;;;;5.23;4.67;;;2.40;92.00;;;;;;939324;153;27299;-74
2021/12/03 01:54:13;;;;;;;4.77;4.27;;;2.30;92.10;;;;;;939202;153;27343;-74
2021/12/03 01:56:39;;;;;;;5.67;4.73;;;2.20;92.10;;;;;;939209;153;27326;-74
2021/12/03 01:59:07;;;;;;;4.33;3.93;;;2.20;92.10;;;;;;943509;150;27282;-74
2021/12/03 02:01:33;;;;;;;4.70;4.30;;;2.20;92.40;;;;;;939111;152;27384;-74
2021/12/03 02:04:00;;;;;;;6.50;4.33;;;2.10;92.20;;;;;;946562;150;27455;-74
2021/12/03 02:06:25;;;;;;;4.90;4.40;;;2.10;92.30;;;;;;951281;150;27391;-74
2021/12/03 02:08:52;;;;;;;4.63;4.20;;;2.00;92.30;;;;;;941111;150;27265;-74
2021/12/03 02:11:19;;;;;;;5.20;4.70;;;2.00;92.40;;;;;;941747;149;27315;-74
2021/12/03 02:13:45;;;;;;;4.73;4.33;;;1.90;92.40;;;;;;936732;151;27306;-74
2021/12/03 02:16:12;;;;;;;5.20;4.70;;;1.90;92.50;;;;;;963656;149;27384;-74
2021/12/03 02:18:38;;;;;;;5.23;4.70;;;1.80;92.60;;;;;;947942;151;27405;-74
2021/12/03 02:21:05;;;;;;;5.33;4.83;;;1.80;92.70;;;;;;944843;150;27310;-74
2021/12/03 02:23:32;;;;;;;5.33;4.67;;;1.80;92.80;;;;;;944477;150;27415;-74
2021/12/03 02:25:58;;;;;;;5.13;4.37;;;1.80;92.90;;;;;;944385;150;27305;-74
2021/12/03 02:28:25;;;;;;;6.90;5.00;;;1.80;92.90;;;;;;953937;149;27303;-74
2021/12/03 02:30:51;;;;;;;7.43;5.43;;;1.70;92.90;;;;;;947219;151;27330;-74
2021/12/03 02:33:18;;;;;;;6.10;5.50;;;1.70;92.90;;;;;;953463;149;27324;-74
2021/12/03 02:35:45;;;;;;;5.07;4.47;;;1.60;92.90;;;;;;963023;149;27387;-74
2021/12/03 02:38:11;;;;;;;7.13;4.73;;;1.60;92.90;;;;;;947425;151;27374;-73
2021/12/03 02:40:38;;;;;;;4.97;4.50;;;1.60;93.00;;;;;;948439;149;27448;-74
2021/12/03 02:43:04;;;;;;;4.63;4.23;;;1.60;93.30;;;;;;952863;149;27274;-74
2021/12/03 02:45:31;;;;;;;4.90;4.40;;;1.50;93.00;;;;;;930801;150;27293;-73
2021/12/03 02:48:00;;;;;;;4.80;4.30;;;1.50;93.00;;;;;;914923;152;27341;-73
2021/12/03 02:50:27;;;;;;;4.97;4.50;;;1.40;93.00;;;;;;940393;151;27299;-73
2021/12/03 02:52:53;;;;;;;5.17;4.17;;;1.40;93.00;;;;;;940280;152;27802;-73
2021/12/03 02:55:20;;;;;;;4.23;3.87;;;1.40;93.10;;;;;;936926;150;27340;-73
2021/12/03 02:57:47;;;;;;;7.13;4.77;;;1.40;93.20;;;;;;943613;152;27293;-73
2021/12/03 03:00:13;;;;;;;4.90;4.40;;;1.30;93.30;;;;;;944009;150;27354;-73
2021/12/03 03:02:40;;;;;;;6.23;4.43;;;1.30;93.40;;;;;;938722;151;27428;-74
2021/12/03 03:05:07;;;;;;;4.90;4.33;;;1.30;93.60;;;;;;936096;152;27979;-74
2021/12/03 03:07:33;;;;;;;5.30;4.80;;;1.30;93.70;;;;;;941558;152;27249;-73
2021/12/03 03:10:00;;;;;;;6.80;4.73;;;1.30;93.70;;;;;;943916;150;27268;-73
2021/12/03 03:12:26;;;;;;;5.03;4.53;;;1.30;93.80;;;;;;936661;150;27363;-73
2021/12/03 03:14:56;;;;;;;4.90;4.40;;;1.30;93.90;;;;;;929585;152;27385;-74
2021/12/03 03:17:22;;;;;;;4.43;4.03;;;1.30;93.90;;;;;;925414;152;27348;-74
2021/12/03 03:19:49;;;;;;;4.80;4.30;;;1.30;94.00;;;;;;943105;149;27360;-73
2021/12/03 03:22:16;;;;;;;5.83;4.50;;;1.30;94.00;;;;;;925056;152;27532;-73
2021/12/03 03:24:42;;;;;;;4.93;4.07;;;1.30;94.00;;;;;;941555;149;27818;-74
2021/12/03 03:27:09;;;;;;;6.17;5.00;;;1.30;94.10;;;;;;924496;154;27375;-73
2021/12/03 03:29:35;;;;;;;5.67;4.87;;;1.30;94.20;;;;;;927535;152;27269;-74
2021/12/03 03:32:02;;;;;;;6.67;4.90;;;1.30;94.20;;;;;;924557;153;27393;-74
2021/12/03 03:34:28;;;;;;;6.40;4.53;;;1.30;94.20;;;;;;928864;152;27339;-74
2021/12/03 03:36:55;;;;;;;4.97;4.40;;;1.30;94.20;;;;;;928521;150;27441;-74
2021/12/03 03:39:22;;;;;;;5.27;4.77;;;1.40;94.20;;;;;;926821;152;27355;-74
2021/12/03 03:41:48;;;;;;;6.57;5.27;;;1.30;94.40;;;;;;925992;152;27373;-74
2021/12/03 03:44:16;;;;;;;4.97;4.43;;;1.30;94.10;;;;;;917539;152;27846;-73
2021/12/03 03:46:41;;;;;;;5.20;4.70;;;1.30;94.10;;;;;;926017;152;27391;-73
2021/12/03 03:49:08;;;;;;;6.07;4.90;;;1.30;94.10;;;;;;924200;154;27645;-73
2021/12/03 03:51:35;;;;;;;5.23;4.73;;;1.30;94.10;;;;;;930010;151;27449;-73
2021/12/03 03:54:01;;;;;;;4.67;4.27;;;1.30;94.10;;;;;;924191;154;27453;-74
2021/12/03 03:56:31;;;;;;;5.20;4.70;;;1.30;94.10;;;;;;933099;151;27315;-74
2021/12/03 03:58:54;;;;;;;4.53;4.10;;;1.30;94.00;;;;;;924531;154;27320;-73
2021/12/03 04:01:21;;;;;;;7.10;4.40;;;1.30;94.00;;;;;;927102;154;27321;-73
2021/12/03 04:03:47;;;;;;;4.67;4.27;;;1.20;93.90;;;;;;925847;154;27636;-73
2021/12/03 04:06:14;;;;;;;5.43;4.50;;;1.20;93.90;;;;;;927275;154;27396;-73
2021/12/03 04:08:41;;;;;;;5.10;4.70;;;1.20;93.90;;;;;;935122;152;27266;-73
2021/12/03 04:11:07;;;;;;;4.87;4.37;;;1.20;93.90;;;;;;935630;152;27283;-73
2021/12/03 04:13:34;;;;;;;5.77;4.60;;;1.10;93.90;;;;;;945015;151;27321;-75
2021/12/03 04:16:00;;;;;;;5.07;4.40;;;1.10;93.90;;;;;;944778;151;27438;-73
2021/12/03 04:18:27;;;;;;;4.87;4.10;;;1.10;94.00;;;;;;933599;153;27397;-73
2021/12/03 04:20:54;;;;;;;4.77;4.20;;;1.10;94.00;;;;;;924524;154;27430;-73
2021/12/03 04:23:20;;;;;;;5.00;4.47;;;1.00;94.00;;;;;;934547;151;27651;-73
2021/12/03 04:25:47;;;;;;;6.13;4.93;;;1.00;93.90;;;;;;941575;151;27263;-73
2021/12/03 04:28:13;;;;;;;7.03;4.20;;;1.00;94.00;;;;;;937254;151;27308;-73
2021/12/03 04:30:40;;;;;;;5.03;4.43;;;0.90;94.00;;;;;;943134;151;27416;-73
2021/12/03 04:33:06;;;;;;;5.27;4.77;;;0.90;94.00;;;;;;930866;151;27353;-73
2021/12/03 04:35:33;;;;;;;6.43;4.90;;;0.90;94.10;;;;;;922944;154;27413;-73
2021/12/03 04:38:00;;;;;;;6.10;4.67;;;0.90;94.20;;;;;;932582;151;27351;-73
2021/12/03 04:40:26;;;;;;;5.37;4.87;;;0.90;94.30;;;;;;925080;154;27459;-73
2021/12/03 04:42:53;;;;;;;5.60;5.03;;;0.90;94.40;;;;;;928322;151;27444;-73
2021/12/03 04:45:19;;;;;;;6.60;4.80;;;0.90;94.40;;;;;;938014;151;27330;-72
2021/12/03 04:47:46;;;;;;;5.30;4.80;;;0.90;94.40;;;;;;933416;151;27417;-72
2021/12/03 04:50:13;;;;;;;5.73;4.80;;;0.80;94.40;;;;;;926427;151;27370;-72
2021/12/03 04:52:39;;;;;;;6.90;5.30;;;0.80;94.40;;;;;;942757;148;27312;-74
2021/12/03 04:55:06;;;;;;;6.23;5.23;;;0.80;94.30;;;;;;943003;150;27429;-72
2021/12/03 04:57:32;;;;;;;8.83;5.77;;;0.80;94.30;;;;;;941205;149;27341;-72
2021/12/03 04:59:59;;;;;;;5.90;5.20;;;0.80;94.30;;;;;;939698;152;27372;-73
2021/12/03 05:02:26;;;;;;;7.67;5.70;;;0.80;94.40;;;;;;941428;149;27285;-72
2021/12/03 05:04:55;;;;;;;6.63;5.73;;;0.80;94.40;;;;;;939267;149;27357;-73
2021/12/03 05:07:31;;;;;;;7.27;5.63;;;0.80;94.40;;;;;;939842;149;27342;-72
2021/12/03 05:09:45;;;;;;;6.10;5.50;;;0.70;94.40;;;;;;937635;149;27339;-72
2021/12/03 05:12:12;;;;;;;7.50;5.60;;;0.80;94.50;;;;;;940657;152;27307;-72
2021/12/03 05:14:38;;;;;;;8.43;6.30;;;0.70;94.50;;;;;;940047;149;27353;-73
2021/12/03 05:17:05;;;;;;;8.23;5.60;;;0.70;94.60;;;;;;941855;149;27292;-73
2021/12/03 05:19:32;;;;;;;8.90;6.33;;;0.80;94.60;;;;;;937298;149;27278;-72
2021/12/03 05:21:58;;;;;;;6.80;6.10;;;0.70;94.60;;;;;;937986;152;27366;-73
2021/12/03 05:24:25;;;;;;;7.17;6.37;;;0.70;94.60;;;;;;939523;151;27387;-73
2021/12/03 05:26:51;;;;;;;8.20;5.67;;;0.70;94.60;;;;;;936087;149;27326;-72
2021/12/03 05:29:18;;;;;;;7.77;5.10;;;0.70;94.60;;;;;;940693;152;27388;-72
2021/12/03 05:31:44;;;;;;;6.77;5.90;;;0.70;94.60;;;;;;937979;151;27428;-72
2021/12/03 05:34:13;;;;;;;7.80;5.63;;;0.70;94.60;;;;;;941279;151;27307;-72
2021/12/03 05:36:38;;;;;;;8.27;5.77;;;0.70;94.60;;;;;;927465;150;27372;-72
2021/12/03 05:39:04;;;;;;;8.23;5.43;;;0.70;94.50;;;;;;931349;151;27331;-73
2021/12/03 05:41:31;;;;;;;5.63;4.70;;;0.70;94.50;;;;;;938162;152;27394;-72
2021/12/03 05:43:57;;;;;;;5.67;4.97;;;0.60;94.50;;;;;;947952;148;27323;-72
2021/12/03 05:46:24;;;;;;;8.53;5.70;;;0.60;94.60;;;;;;946907;151;27752;-72
2021/12/03 05:48:51;;;;;;;5.93;5.33;;;0.60;94.60;;;;;;936608;149;27380;-72
2021/12/03 05:51:18;;;;;;;7.37;5.83;;;0.60;94.60;;;;;;943202;152;27449;-72
2021/12/03 05:53:44;;;;;;;7.00;5.00;;;0.60;94.60;;;;;;931840;150;27249;-72
2021/12/03 05:56:10;;;;;;;6.03;5.30;;;0.60;94.70;;;;;;947620;151;27315;-72
2021/12/03 05:58:37;;;;;;;6.43;5.00;;;0.60;94.70;;;;;;936148;150;27792;-72
2021/12/03 06:01:04;;;;;;;5.90;5.33;;;0.60;94.80;;;;;;932576;152;27277;-72
2021/12/03 06:03:30;;;;;;;5.43;4.80;;;0.60;94.90;;;;;;934560;150;27289;-72
2021/12/03 06:05:57;;;;;;;4.80;4.30;;;0.60;94.90;;;;;;941745;151;27372;-72
2021/12/03 06:08:23;;;;;;;7.33;5.77;;;0.60;94.90;;;;;;948519;148;27453;-72
2021/12/03 06:10:50;;;;;;;5.40;4.90;;;0.60;95.00;;;;;;946971;148;27385;-72
2021/12/03 06:13:16;;;;;;;6.00;5.40;;;0.70;95.00;;;;;;947083;151;27410;-73
2021/12/03 06:15:43;;;;;;;5.17;4.67;;;0.70;95.10;;;;;;945873;151;27435;-72
2021/12/03 06:18:10;;;;;;;5.70;5.10;;;0.70;95.20;;;;;;946642;151;28268;-72
2021/12/03 06:20:36;;;;;;;6.23;5.17;;;0.70;95.20;;;;;;947764;148;27336;-72
2021/12/03 06:23:03;;;;;;;5.67;5.10;;;0.70;95.20;;;;;;943229;151;27294;-72
2021/12/03 06:25:29;;;;;;;6.90;4.97;;;0.70;95.20;;;;;;937263;149;27415;-73
2021/12/03 06:27:58;;;;;;;7.77;5.40;;;0.80;95.20;;;;;;940534;152;27370;-72
2021/12/03 06:30:24;;;;;;;6.10;4.70;;;0.80;95.20;;;;;;935988;152;27278;-72
2021/12/03 06:32:49;;;;;;;10.13;6.20;;;0.80;95.20;;;;;;946771;147;27369;-72
2021/12/03 06:35:16;;;;;;;5.37;4.63;;;0.80;95.20;;;;;;950425;150;27325;-72
2021/12/03 06:37:42;;;;;;;6.33;4.73;;;0.80;95.10;;;;;;926529;152;27356;-72
2021/12/03 06:40:09;;;;;;;7.10;4.93;;;0.80;95.20;;;;;;937024;151;27398;-73
2021/12/03 06:42:36;;;;;;;5.33;4.80;;;0.80;95.10;;;;;;923599;151;27454;-72
2021/12/03 06:45:05;;;;;;;5.73;5.07;;;0.80;95.10;;;;;;954034;147;27325;-72
2021/12/03 06:47:29;;;;;;;6.97;5.20;;;0.80;95.10;;;;;;939869;149;27449;-72
2021/12/03 06:49:57;;;;;;;5.90;5.30;;;0.80;95.10;;;;;;947487;151;27402;-72
2021/12/03 06:52:24;;;;;;;7.37;5.83;;;0.80;95.00;;;;;;941046;150;27418;-72
2021/12/03 06:54:59;;;;;;;6.80;5.27;;;0.80;95.00;;;;;;947770;150;27307;-73
2021/12/03 06:57:23;;;;;;;6.03;5.10;;;0.80;95.10;;;;;;935300;151;27277;-72
2021/12/03 06:59:49;;;;;;;8.43;5.33;;;0.80;95.10;;;;;;944452;149;27380;-72
2021/12/03 07:02:16;;;;;;;5.27;4.70;;;0.80;95.10;;;;;;948697;151;27355;-73
2021/12/03 07:04:44;;;;;;;5.60;4.70;;;0.80;95.20;;;;;;946026;151;28278;-72
2021/12/03 07:07:09;;;;;;;7.60;4.90;;;0.80;95.30;;;;;;936960;150;27333;-72
2021/12/03 07:09:36;;;;;;;6.13;5.13;;;0.80;95.40;;;;;;947545;147;27288;-73
2021/12/03 07:12:02;;;;;;;7.50;5.30;;;0.80;95.50;;;;;;947287;148;27342;-72
2021/12/03 07:14:29;;;;;;;5.53;4.97;;;0.80;95.60;;;;;;930587;152;27289;-72
2021/12/03 07:16:57;;;;;;;7.27;5.47;;;0.80;95.70;;;;;;938709;150;28084;-72
2021/12/03 07:19:22;;;;;;;6.33;5.33;;;0.90;95.70;;;;;;948036;150;27411;-72
2021/12/03 07:21:49;;;;;;;5.87;5.07;;;0.90;95.70;;;;;;931982;154;27431;-72
2021/12/03 07:24:15;;;;;;;8.23;5.87;;;0.90;95.80;;;;;;939922;147;27284;-72
2021/12/03 07:26:42;;;;;;;10.43;6.80;;;1.00;95.90;;;;;;947098;151;27333;-73
2021/12/03 07:29:08;;;;;;;7.37;5.73;;;1.10;96.30;;;;;;947206;151;27267;-72
2021/12/03 07:31:35;;;;;;;7.03;6.10;;;1.20;96.90;;;;;;947968;151;27354;-73
2021/12/03 07:34:02;;;;;;;7.37;6.17;;;1.40;97.50;;;;;;946811;151;27382;-73
2021/12/03 07:36:28;;;;;;;6.93;5.53;;;1.60;98.30;;;;;;950610;150;27666;-72
2021/12/03 07:38:55;;;;;;;6.07;5.47;;;1.80;98.20;;;;;;954553;148;27319;-73
2021/12/03 07:41:21;;;;;;;7.70;6.87;;;2.00;98.10;;;;;;950807;149;27334;-72
2021/12/03 07:43:48;;;;;;;7.50;5.30;;;2.20;97.80;;;;;;951203;148;27300;-73
2021/12/03 08:03:12;;;;;;;5.27;4.77;;;4.00;99.20;;;;;;963155;148;27301;-72
2021/12/03 08:05:39;;;;;;;5.30;4.77;;;4.40;99.00;;;;;;942322;148;27798;-72
2021/12/03 08:08:05;;;;;;;5.67;5.13;;;4.80;98.40;;;;;;949579;149;27388;-73
2021/12/03 08:10:34;;;;;;;5.23;4.30;;;5.10;97.60;;;;;;963107;149;27408;-72
2021/12/03 08:12:58;;;;;;;5.37;4.87;;;5.30;96.50;;;;;;950325;149;27306;-73
2021/12/03 08:15:25;;;;;;;4.80;4.30;;;5.50;95.20;;;;;;960891;149;27299;-73
2021/12/03 08:17:51;;;;;;;5.80;4.70;;;5.50;94.00;;;;;;959292;149;27331;-73
2021/12/03 08:20:18;;;;;;;4.87;4.33;;;5.50;93.00;;;;;;950435;149;27329;-73
2021/12/03 08:22:45;;;;;;;5.43;4.67;;;5.50;92.50;;;;;;946502;152;27351;-73
2021/12/03 08:25:11;;;;;;;4.80;4.40;;;5.40;92.00;;;;;;946581;152;27440;-72
2021/12/03 08:27:39;;;;;;;5.87;4.73;;;5.30;91.80;;;;;;938772;151;27295;-72
2021/12/03 08:30:05;;;;;;;4.80;4.40;;;5.20;91.90;;;;;;950241;149;27285;-73
2021/12/03 08:32:31;;;;;;;5.47;4.60;;;5.10;92.10;;;;;;963155;149;27291;-73
2021/12/03 08:34:58;;;;;;;5.27;4.77;;;5.10;92.30;;;;;;963531;146;27290;-73
2021/12/03 08:37:24;;;;;;;12.43;5.90;;;5.10;92.50;;;;;;962937;149;27408;-73
2021/12/03 08:39:51;;;;;;;6.43;4.90;;;5.10;92.90;;;;;;953603;149;27333;-72
2021/12/03 08:42:18;;;;;;;5.30;4.57;;;5.10;93.20;;;;;;950494;149;27276;-73
2021/12/03 08:44:44;;;;;;;5.00;4.23;;;5.20;93.20;;;;;;951355;150;27335;-73
2021/12/03 08:47:11;;;;;;;5.83;4.87;;;5.20;93.00;;;;;;951490;150;27275;-72
2021/12/03 08:49:44;;;;;;;5.00;4.50;;;5.20;92.90;;;;;;955240;148;27324;-72
2021/12/03 08:54:51;;;;;;;5.57;4.87;;;5.30;92.70;;;;;;948058;150;27359;-73
2021/12/03 08:57:15;;;;;;;5.20;4.30;;;5.30;92.50;;;;;;945478;150;27394;-73
2021/12/03 08:59:42;;;;;;;4.40;4.03;;;5.30;92.50;;;;;;945260;149;27659;-73
2021/12/03 09:02:08;;;;;;;4.77;4.23;;;5.30;92.40;;;;;;948717;150;27370;-73
2021/12/03 09:04:35;;;;;;;4.93;4.40;;;5.30;92.30;;;;;;950862;150;27290;-73
2021/12/03 09:07:02;;;;;;;5.53;4.30;;;5.30;92.10;;;;;;949271;148;27302;-73
2021/12/03 09:09:28;;;;;;;4.90;4.30;;;5.30;92.10;;;;;;950262;150;27340;-73
2021/12/03 09:11:55;;;;;;;5.93;4.10;;;5.30;92.10;;;;;;939592;150;27361;-73
2021/12/03 09:19:56;;;;;;;8.00;6.07;;;5.40;92.60;;;;;;936430;150;27411;-73
2021/12/03 09:25:00;;;;;;;9.63;5.97;;;5.40;92.60;;;;;;949978;150;27278;-73
2021/12/03 09:27:26;;;;;;;5.47;4.83;;;5.50;92.60;;;;;;950899;148;27285;-74
2021/12/03 09:29:55;;;;;;;6.40;4.90;;;5.50;92.40;;;;;;951483;148;27338;-73
2021/12/03 09:32:26;;;;;;;5.83;4.30;;;5.60;92.30;;;;;;950669;150;27388;-73
2021/12/03 09:34:50;;;;;;;5.00;4.40;;;5.60;92.10;;;;;;944538;149;27330;-73
2021/12/03 09:37:16;;;;;;;6.27;5.13;;;5.60;92.00;;;;;;944660;150;27843;-72
2021/12/03 09:39:45;;;;;;;6.13;5.17;;;5.60;91.80;;;;;;953305;150;27290;-73
2021/12/03 09:42:09;;;;;;;6.07;5.00;;;5.60;91.70;;;;;;940004;150;27397;-73
2021/12/03 09:44:39;;;;;;;6.53;5.03;;;5.60;91.70;;;;;;944855;150;27357;-73
2021/12/03 09:47:05;;;;;;;4.70;4.30;;;5.60;91.70;;;;;;941983;151;27419;-74
2021/12/03 09:49:34;;;;;;;5.23;4.33;;;5.60;91.80;;;;;;940415;150;27312;-73
2021/12/03 09:52:06;;;;;;;4.50;3.73;;;5.70;91.90;;;;;;931380;151;27341;-73
2021/12/03 09:54:40;;;;;;;5.07;4.47;;;5.70;91.80;;;;;;939675;150;27382;-73
2021/12/03 09:57:10;;;;;;;5.53;4.70;;;5.70;91.70;;;;;;932952;152;27382;-74
2021/12/03 10:02:36;;;;;;;7.43;4.40;;;5.80;92.00;;;;;;940820;151;27446;-73
2021/12/03 10:05:25;;;;;;;5.80;4.77;;;5.90;92.10;;;;;;932333;152;27465;-73
2021/12/03 10:12:57;;;;;;;5.13;4.50;;;6.10;92.20;;;;;;922089;151;27322;-73
2021/12/03 10:17:55;;;;;;;5.20;4.70;;;6.20;91.60;;;;;;931740;152;27255;-73
2021/12/03 10:20:24;;;;;;;4.43;3.83;;;6.30;91.50;;;;;;928155;152;27366;-73
2021/12/03 10:23:28;;;;;;;6.13;4.50;;;6.30;91.40;;;;;;935743;151;27285;-72
2021/12/03 10:38:52;;;;;;;4.93;4.43;;;6.50;91.20;;;;;;934796;152;27307;-74
2021/12/03 10:46:55;;;;;;;4.60;4.20;;;6.70;90.70;;;;;;914076;150;27344;-72
2021/12/03 10:51:49;;;;;;;4.90;4.17;;;6.80;90.40;;;;;;942170;151;27352;-72
2021/12/03 11:07:24;;;;;;;3.80;3.50;;;7.00;90.10;;;;;;946384;151;27645;-73
2021/12/03 11:12:58;;;;;;;3.73;3.43;;;7.00;88.90;;;;;;946585;151;27337;-73
2021/12/03 11:15:52;;;;;;;5.60;3.33;;;7.00;88.40;;;;;;934013;151;27336;-72
2021/12/03 11:18:20;;;;;;;5.77;3.47;;;6.90;87.30;;;;;;930462;151;27335;-73
2021/12/03 11:42:28;;;;;;;3.27;2.97;;;6.70;87.00;;;;;;940159;151;27260;-73
2021/12/03 11:45:13;;;;;;;3.37;3.07;;;6.70;86.90;;;;;;937438;151;27280;-73
2021/12/03 11:56:25;;;;;;;3.40;3.10;;;6.60;86.50;;;;;;939785;152;27301;-73
2021/12/03 12:21:38;;;;;;;4.73;3.67;;;6.20;86.80;;;;;;941458;151;27297;-73
2021/12/03 12:23:57;;;;;;;3.87;3.50;;;6.20;87.10;;;;;;930690;152;27353;-73
2021/12/03 12:26:38;;;;;;;4.20;3.33;;;6.20;86.90;;;;;;922115;151;27419;-73
2021/12/03 12:32:44;;;;;;;3.67;3.37;;;6.10;87.20;;;;;;941683;152;27363;-73
2021/12/03 12:40:01;;;;;;;4.73;3.60;;;6.10;87.20;;;;;;938427;150;27286;-74
2021/12/03 12:42:54;;;;;;;4.20;3.10;;;6.10;87.50;;;;;;936365;152;27351;-73
2021/12/03 13:28:14;;;;;;;4.10;3.80;;;6.10;87.10;;;;;;945792;149;27338;-74
2021/12/03 13:31:28;;;;;;;4.33;3.23;;;6.10;87.20;;;;;;932437;152;27433;-73
2021/12/03 13:39:15;;;;;;;3.80;3.43;;;6.10;87.50;;;;;;940855;152;27306;-74
2021/12/03 13:56:32;;;;;;;4.67;3.77;;;6.00;87.70;;;;;;936661;152;27387;-73
2021/12/03 13:57:11;;;;;;;4.37;3.70;;;6.00;87.90;;;;;;935521;151;27438;-73
2021/12/03 14:07:32;;;;;;;4.70;3.80;;;6.10;87.80;;;;;;937911;148;27362;-73
2021/12/03 14:09:55;;;;;;;3.77;3.27;;;6.10;87.80;;;;;;931836;152;27418;-73
2021/12/03 14:16:21;;;;;;;4.13;3.53;;;6.10;87.70;;;;;;926623;150;27359;-73
2021/12/03 14:39:22;;;;;;;4.03;3.20;;;6.10;87.50;;;;;;925439;151;27287;-74
2021/12/03 14:42:37;;;;;;;3.47;2.70;;;6.10;87.50;;;;;;928031;154;27464;-74
2021/12/03 14:46:50;;;;;;;3.07;2.70;;;6.20;87.50;;;;;;937077;152;27785;-74
2021/12/03 14:51:50;;;;;;;2.83;2.43;;;6.20;87.50;;;;;;933013;152;27337;-74
2021/12/03 14:56:42;;;;;;;2.90;2.60;;;6.20;87.30;;;;;;933092;153;27429;-74
2021/12/03 14:59:16;;;;;;;2.90;2.70;;;6.30;87.20;;;;;;932537;152;27269;-75
2021/12/03 15:06:50;;;;;;;6.87;4.40;;;6.30;86.60;;;;;;929221;153;27336;-74
2021/12/03 15:09:18;;;;;;;6.67;5.17;;;6.30;86.40;;;;;;922941;153;27363;-74
2021/12/03 15:25:03;;;;;;;7.53;4.97;;;6.20;86.60;;;;;;931829;153;27975;-73
2021/12/03 15:35:49;;;;;;;7.17;4.60;;;6.10;86.40;;;;;;930672;153;27257;-74
2021/12/03 15:40:54;;;;;;;5.33;3.90;;;6.00;86.10;;;;;;930213;152;27426;-74
2021/12/03 16:04:35;;;;;;;5.50;3.87;;;6.00;87.30;;;;;;928051;154;27370;-74
2021/12/03 16:54:02;;;;;;;4.33;2.80;;;6.20;86.10;;;;;;926981;154;27377;-75
2021/12/03 16:56:26;;;;;;;3.30;2.90;;;6.20;86.00;;;;;;928419;152;27407;-75
2021/12/03 16:58:51;;;;;;;3.60;2.63;;;6.20;85.90;;;;;;926057;154;27473;-75
2021/12/03 17:03:58;;;;;;;3.40;3.10;;;6.20;85.90;;;;;;945337;151;27276;-76
2021/12/03 17:09:06;;;;;;;4.30;3.90;;;6.20;86.00;;;;;;916471;154;27376;-74
2021/12/03 17:15:03;;;;;;;4.03;3.40;;;6.20;86.10;;;;;;928712;151;27805;-75
2021/12/03 17:17:13;;;;;;;4.70;3.93;;;6.20;86.10;;;;;;928340;151;27296;-76
2021/12/03 17:22:34;;;;;;;6.93;3.43;;;6.20;86.20;;;;;;933430;151;27451;-75
2021/12/03 17:26:08;;;;;;;5.03;4.20;;;6.10;86.10;;;;;;943272;151;27397;-75
2021/12/03 17:48:55;;;;;;;3.63;3.17;;;6.00;86.60;;;;;;925807;154;27479;-75
2021/12/03 17:51:35;;;;;;;4.23;3.83;;;6.00;86.60;;;;;;924149;152;27398;-75
2021/12/03 17:56:13;;;;;;;4.70;4.20;;;6.00;86.70;;;;;;923340;154;27368;-76
2021/12/03 17:58:41;;;;;;;6.23;4.43;;;6.00;86.70;;;;;;915287;153;27441;-76
2021/12/03 18:01:13;;;;;;;3.80;3.50;;;6.00;86.70;;;;;;923155;152;27307;-76
2021/12/03 18:06:16;;;;;;;4.43;4.00;;;6.00;86.80;;;;;;919812;154;27431;-76
2021/12/03 18:44:13;;;;;;;3.43;3.13;;;6.10;86.70;;;;;;938200;151;27322;-75
2021/12/03 18:52:09;;;;;;;3.90;3.40;;;6.20;86.80;;;;;;928282;154;27340;-76
2021/12/03 18:56:51;;;;;;;3.53;3.23;;;6.30;86.80;;;;;;942413;151;27545;-76
2021/12/03 18:59:15;;;;;;;5.23;3.53;;;6.30;86.60;;;;;;939519;149;27833;-75
2021/12/03 19:01:42;;;;;;;3.90;3.53;;;6.30;86.60;;;;;;938247;150;27410;-76
2021/12/03 19:04:16;;;;;;;4.33;3.83;;;6.30;86.40;;;;;;944882;150;27431;-76
2021/12/03 19:09:25;;;;;;;6.33;2.63;;;6.40;86.30;;;;;;944877;152;27298;-75
2021/12/03 19:14:16;;;;;;;4.87;3.23;;;6.40;86.00;;;;;;933450;149;27347;-75
2021/12/03 19:16:42;;;;;;;5.80;3.57;;;6.50;85.90;;;;;;941478;152;27305;-75
2021/12/03 19:19:11;;;;;;;7.37;5.30;;;6.50;85.80;;;;;;931352;152;27431;-74
2021/12/03 19:21:39;;;;;;;4.10;3.60;;;6.50;85.80;;;;;;943240;150;27325;-75
2021/12/03 19:24:02;;;;;;;3.33;3.03;;;6.50;85.60;;;;;;939464;152;27857;-75
2021/12/03 19:26:28;;;;;;;4.90;4.40;;;6.60;85.40;;;;;;951400;149;27325;-75
2021/12/03 19:28:55;;;;;;;5.73;4.57;;;6.60;85.40;;;;;;946745;149;27287;-75
2021/12/03 19:31:22;;;;;;;4.27;3.87;;;6.60;85.30;;;;;;942587;149;27450;-75
2021/12/03 19:33:48;;;;;;;3.73;3.40;;;6.60;85.20;;;;;;930479;151;27405;-75
2021/12/03 19:36:25;;;;;;;3.50;3.20;;;6.60;85.10;;;;;;944784;149;27828;-75
2021/12/03 19:38:41;;;;;;;3.37;3.07;;;6.70;85.00;;;;;;944891;149;27353;-75
2021/12/03 19:43:51;;;;;;;3.60;2.97;;;6.70;84.70;;;;;;916308;152;27328;-74
2021/12/03 19:46:18;;;;;;;2.90;2.70;;;6.70;84.60;;;;;;941357;149;27347;-75
2021/12/03 19:48:44;;;;;;;4.67;2.83;;;6.80;84.60;;;;;;939295;152;29051;-75
2021/12/03 19:51:13;;;;;;;3.10;2.80;;;6.80;83.70;;;;;;940961;149;27347;-74
2021/12/03 19:53:38;;;;;;;3.97;2.77;;;6.80;84.50;;;;;;938678;149;27329;-74
2021/12/03 19:55:59;;;;;;;2.60;2.40;;;6.70;84.30;;;;;;961098;149;27260;-74
2021/12/03 19:58:25;;;;;;;3.43;3.03;;;6.80;84.10;;;;;;946302;149;27349;-74
2021/12/03 20:00:52;;;;;;;3.10;2.80;;;6.80;84.00;;;;;;929633;154;27416;-75
2021/12/03 20:03:18;;;;;;;3.00;2.40;;;6.80;84.00;;;;;;929656;154;27369;-75